EXS78GK ENBR-EGBB
Flight info
| Callsign | EXS78GK |
|---|---|
| Flight time | 1h 29m |
| Altitude | 38000 |
| Route | EPOTU DCT KLONN DCT OMENU |
| Aircraft | B738/M-SDE2E3FGHIRWXY/LB1 |
Departure
| Time | 2026-04-28 11:43 |
|---|---|
| Airport | Bergen Airport, Flesland (ENBR) |
Arrival
| Time | 2026-04-28 13:12 |
|---|---|
| Airport | Birmingham Airport (EGBB) |
| Time | Latitude | Longitude | Altitude | Speed | Heading |
|---|---|---|---|---|---|
| 2026-04-28 11:06 | 60.29080 | 5.22560 | 173 ft | 0 kts | 32° |
| 2026-04-28 11:36 | 60.29079 | 5.22559 | 173 ft | 2 kts | 32° |
| 2026-04-28 11:36 | 60.29058 | 5.22541 | 191 ft | 4 kts | 349° |
| 2026-04-28 11:36 | 60.29044 | 5.22565 | 167 ft | 4 kts | 278° |
| 2026-04-28 11:37 | 60.29044 | 5.22613 | 170 ft | 2 kts | 261° |
| 2026-04-28 11:37 | 60.29044 | 5.22614 | 170 ft | 1 kts | 261° |
| 2026-04-28 11:39 | 60.29043 | 5.22602 | 167 ft | 3 kts | 261° |
| 2026-04-28 11:39 | 60.29036 | 5.22513 | 170 ft | 11 kts | 262° |
| 2026-04-28 11:39 | 60.28992 | 5.22387 | 165 ft | 10 kts | 186° |
| 2026-04-28 11:39 | 60.28936 | 5.22337 | 163 ft | 11 kts | 234° |
| 2026-04-28 11:40 | 60.28849 | 5.22300 | 161 ft | 15 kts | 171° |
| 2026-04-28 11:40 | 60.28733 | 5.22340 | 162 ft | 19 kts | 171° |
| 2026-04-28 11:40 | 60.28597 | 5.22388 | 164 ft | 21 kts | 170° |
| 2026-04-28 11:40 | 60.28435 | 5.22442 | 162 ft | 25 kts | 172° |
| 2026-04-28 11:41 | 60.28285 | 5.22492 | 155 ft | 25 kts | 170° |
| 2026-04-28 11:41 | 60.28117 | 5.22549 | 150 ft | 12 kts | 171° |
| 2026-04-28 11:41 | 60.28060 | 5.22501 | 151 ft | 10 kts | 247° |
| 2026-04-28 11:41 | 60.28047 | 5.22332 | 149 ft | 12 kts | 263° |
| 2026-04-28 11:42 | 60.28048 | 5.22266 | 150 ft | 3 kts | 302° |
| 2026-04-28 11:42 | 60.28072 | 5.22248 | 149 ft | 6 kts | 348° |
| 2026-04-28 11:42 | 60.28217 | 5.22197 | 152 ft | 50 kts | 350° |
| 2026-04-28 11:42 | 60.28775 | 5.22007 | 161 ft | 112 kts | 349° |
| 2026-04-28 11:43 | 60.29721 | 5.21687 | 181 ft | 160 kts | 351° |
| 2026-04-28 11:43 | 60.30806 | 5.21384 | 871 ft | 155 kts | 351° |
| 2026-04-28 11:43 | 60.31907 | 5.21063 | 1480 ft | 167 kts | 351° |
| 2026-04-28 11:43 | 60.33141 | 5.20740 | 1843 ft | 195 kts | 353° |
| 2026-04-28 11:44 | 60.34520 | 5.20305 | 2431 ft | 206 kts | 350° |
| 2026-04-28 11:44 | 60.35941 | 5.19780 | 3133 ft | 208 kts | 350° |
| 2026-04-28 11:44 | 60.37373 | 5.19270 | 3908 ft | 210 kts | 350° |
| 2026-04-28 11:44 | 60.38824 | 5.18749 | 4688 ft | 212 kts | 350° |
| 2026-04-28 11:45 | 60.40302 | 5.18224 | 5306 ft | 223 kts | 350° |
| 2026-04-28 11:45 | 60.41922 | 5.17658 | 5562 ft | 248 kts | 350° |
| 2026-04-28 11:45 | 60.43658 | 5.17046 | 6224 ft | 256 kts | 349° |
| 2026-04-28 11:45 | 60.45425 | 5.16424 | 7017 ft | 259 kts | 348° |
| 2026-04-28 11:46 | 60.47094 | 5.15091 | 7757 ft | 262 kts | 323° |
| 2026-04-28 11:46 | 60.48247 | 5.12259 | 8553 ft | 265 kts | 296° |
| 2026-04-28 11:46 | 60.48694 | 5.08605 | 9292 ft | 273 kts | 273° |
| 2026-04-28 11:46 | 60.48497 | 5.04739 | 10045 ft | 279 kts | 263° |
| 2026-04-28 11:47 | 60.47770 | 5.01049 | 10697 ft | 291 kts | 236° |
| 2026-04-28 11:47 | 60.46202 | 4.98361 | 11241 ft | 307 kts | 209° |
| 2026-04-28 11:47 | 60.44048 | 4.97345 | 11410 ft | 334 kts | 179° |
| 2026-04-28 11:47 | 60.41674 | 4.97793 | 11792 ft | 349 kts | 173° |
| 2026-04-28 11:48 | 60.39239 | 4.98420 | 12357 ft | 356 kts | 173° |
| 2026-04-28 11:48 | 60.36759 | 4.99043 | 12997 ft | 362 kts | 173° |
| 2026-04-28 11:48 | 60.34235 | 4.99627 | 13692 ft | 367 kts | 173° |
| 2026-04-28 11:48 | 60.31679 | 5.00176 | 14354 ft | 373 kts | 174° |
| 2026-04-28 11:49 | 60.29076 | 5.00716 | 14946 ft | 379 kts | 174° |
| 2026-04-28 11:49 | 60.26449 | 5.01341 | 15610 ft | 382 kts | 170° |
| 2026-04-28 11:49 | 60.23820 | 5.02352 | 16268 ft | 387 kts | 167° |
| 2026-04-28 11:49 | 60.21170 | 5.03460 | 16910 ft | 391 kts | 169° |
| 2026-04-28 11:50 | 60.18444 | 5.03462 | 17491 ft | 397 kts | 194° |
| 2026-04-28 11:50 | 60.15924 | 5.01324 | 18150 ft | 394 kts | 217° |
| 2026-04-28 11:50 | 60.13896 | 4.97714 | 18792 ft | 389 kts | 237° |
| 2026-04-28 11:50 | 60.12453 | 4.93177 | 19352 ft | 386 kts | 246° |
| 2026-04-28 11:51 | 60.11140 | 4.88457 | 19918 ft | 389 kts | 246° |
| 2026-04-28 11:51 | 60.09825 | 4.83686 | 20475 ft | 393 kts | 246° |
| 2026-04-28 11:51 | 60.08482 | 4.78884 | 21055 ft | 397 kts | 246° |
| 2026-04-28 11:51 | 60.07109 | 4.74063 | 21588 ft | 401 kts | 245° |
| 2026-04-28 11:52 | 60.05727 | 4.69263 | 22118 ft | 405 kts | 245° |
| 2026-04-28 11:52 | 60.04310 | 4.64370 | 22641 ft | 408 kts | 245° |
| 2026-04-28 11:52 | 60.02879 | 4.59443 | 23211 ft | 411 kts | 245° |
| 2026-04-28 11:52 | 60.01418 | 4.54421 | 23737 ft | 414 kts | 245° |
| 2026-04-28 11:53 | 59.99984 | 4.49503 | 24228 ft | 417 kts | 245° |
| 2026-04-28 11:53 | 59.98517 | 4.44477 | 24663 ft | 420 kts | 245° |
| 2026-04-28 11:53 | 59.97037 | 4.39416 | 25078 ft | 423 kts | 245° |
| 2026-04-28 11:53 | 59.95544 | 4.34321 | 25496 ft | 426 kts | 245° |
| 2026-04-28 11:54 | 59.94042 | 4.29207 | 25895 ft | 429 kts | 245° |
| 2026-04-28 11:54 | 59.92525 | 4.24050 | 26303 ft | 432 kts | 245° |
| 2026-04-28 11:54 | 59.90996 | 4.18864 | 26714 ft | 435 kts | 245° |
| 2026-04-28 11:54 | 59.89453 | 4.13646 | 27099 ft | 438 kts | 245° |
| 2026-04-28 11:55 | 59.87654 | 4.08681 | 27434 ft | 452 kts | 229° |
| 2026-04-28 11:55 | 59.85099 | 4.04936 | 27796 ft | 463 kts | 209° |
| 2026-04-28 11:55 | 59.82160 | 4.02272 | 28228 ft | 466 kts | 206° |
| 2026-04-28 11:55 | 59.79170 | 3.99729 | 28537 ft | 470 kts | 205° |
| 2026-04-28 11:56 | 59.76139 | 3.97190 | 28835 ft | 474 kts | 205° |
| 2026-04-28 11:56 | 59.73098 | 3.94634 | 29181 ft | 477 kts | 205° |
| 2026-04-28 11:56 | 59.70037 | 3.92037 | 29508 ft | 479 kts | 205° |
| 2026-04-28 11:56 | 59.66981 | 3.89421 | 29925 ft | 479 kts | 205° |
| 2026-04-28 11:57 | 59.63916 | 3.86782 | 30296 ft | 481 kts | 205° |
| 2026-04-28 11:57 | 59.60841 | 3.84127 | 30589 ft | 484 kts | 205° |
| 2026-04-28 11:57 | 59.57743 | 3.81452 | 30836 ft | 487 kts | 205° |
| 2026-04-28 11:57 | 59.54632 | 3.78769 | 31104 ft | 489 kts | 205° |
| 2026-04-28 11:58 | 59.51504 | 3.76078 | 31357 ft | 491 kts | 205° |
| 2026-04-28 11:58 | 59.48367 | 3.73386 | 31612 ft | 493 kts | 205° |
| 2026-04-28 11:58 | 59.45214 | 3.70687 | 31868 ft | 495 kts | 205° |
| 2026-04-28 11:58 | 59.42043 | 3.67979 | 32115 ft | 497 kts | 205° |
| 2026-04-28 11:59 | 59.38866 | 3.65272 | 32356 ft | 499 kts | 205° |
| 2026-04-28 11:59 | 59.35678 | 3.62562 | 32647 ft | 499 kts | 205° |
| 2026-04-28 11:59 | 59.32493 | 3.59860 | 33010 ft | 498 kts | 205° |
| 2026-04-28 11:59 | 59.29317 | 3.57172 | 33372 ft | 497 kts | 205° |
| 2026-04-28 12:00 | 59.26146 | 3.54492 | 33683 ft | 497 kts | 205° |
| 2026-04-28 12:00 | 59.22972 | 3.51815 | 33964 ft | 497 kts | 205° |
| 2026-04-28 12:00 | 59.19798 | 3.49143 | 34272 ft | 497 kts | 205° |
| 2026-04-28 12:00 | 59.16628 | 3.46480 | 34598 ft | 496 kts | 205° |
| 2026-04-28 12:01 | 59.13463 | 3.43827 | 34858 ft | 495 kts | 205° |
| 2026-04-28 12:01 | 59.10290 | 3.41173 | 35079 ft | 496 kts | 205° |
| 2026-04-28 12:01 | 59.07124 | 3.38529 | 35296 ft | 496 kts | 205° |
| 2026-04-28 12:01 | 59.03993 | 3.35920 | 35527 ft | 496 kts | 205° |
| 2026-04-28 12:02 | 59.00815 | 3.33277 | 35765 ft | 496 kts | 205° |
| 2026-04-28 12:02 | 58.97644 | 3.30646 | 35982 ft | 496 kts | 205° |
| 2026-04-28 12:02 | 58.94467 | 3.28013 | 36187 ft | 497 kts | 205° |
| 2026-04-28 12:02 | 58.91280 | 3.25379 | 36395 ft | 497 kts | 205° |
| 2026-04-28 12:03 | 58.88100 | 3.22756 | 36617 ft | 497 kts | 205° |
| 2026-04-28 12:03 | 58.84921 | 3.20139 | 36835 ft | 497 kts | 205° |
| 2026-04-28 12:03 | 58.81738 | 3.17523 | 37025 ft | 497 kts | 205° |
| 2026-04-28 12:03 | 58.78552 | 3.14911 | 37194 ft | 498 kts | 204° |
| 2026-04-28 12:04 | 58.75372 | 3.12309 | 37474 ft | 496 kts | 204° |
| 2026-04-28 12:04 | 58.72201 | 3.09719 | 37750 ft | 494 kts | 204° |
| 2026-04-28 12:04 | 58.69037 | 3.07140 | 37934 ft | 494 kts | 204° |
| 2026-04-28 12:04 | 58.65866 | 3.04560 | 38077 ft | 495 kts | 204° |
| 2026-04-28 12:05 | 58.62695 | 3.01985 | 38245 ft | 496 kts | 204° |
| 2026-04-28 12:05 | 58.59521 | 2.99413 | 38451 ft | 495 kts | 204° |
| 2026-04-28 12:05 | 58.53157 | 2.94270 | 38537 ft | 499 kts | 204° |
| 2026-04-28 12:06 | 58.46771 | 2.89130 | 38537 ft | 496 kts | 204° |
| 2026-04-28 12:06 | 58.40425 | 2.84040 | 38539 ft | 493 kts | 204° |
| 2026-04-28 12:07 | 58.34417 | 2.77900 | 38556 ft | 488 kts | 214° |
| 2026-04-28 12:07 | 58.28677 | 2.71029 | 38550 ft | 487 kts | 214° |
| 2026-04-28 12:08 | 58.22936 | 2.64177 | 38546 ft | 487 kts | 214° |
| 2026-04-28 12:08 | 58.17157 | 2.57410 | 38555 ft | 489 kts | 213° |
| 2026-04-28 12:09 | 58.11344 | 2.50683 | 38556 ft | 491 kts | 213° |
| 2026-04-28 12:09 | 58.05496 | 2.43954 | 38527 ft | 493 kts | 213° |
| 2026-04-28 12:10 | 57.99629 | 2.37227 | 38549 ft | 495 kts | 213° |
| 2026-04-28 12:10 | 57.93735 | 2.30490 | 38551 ft | 496 kts | 213° |
| 2026-04-28 12:11 | 57.87815 | 2.23750 | 38553 ft | 498 kts | 212° |
| 2026-04-28 12:11 | 57.81882 | 2.17020 | 38551 ft | 499 kts | 212° |
| 2026-04-28 12:12 | 57.75942 | 2.10309 | 38545 ft | 499 kts | 212° |
| 2026-04-28 12:12 | 57.69994 | 2.03616 | 38544 ft | 498 kts | 212° |
| 2026-04-28 12:13 | 57.65063 | 1.98087 | 38546 ft | 497 kts | 212° |
| 2026-04-28 12:13 | 57.58169 | 1.90385 | 38548 ft | 496 kts | 211° |
| 2026-04-28 12:14 | 57.53210 | 1.84867 | 38549 ft | 495 kts | 211° |
| 2026-04-28 12:14 | 57.47300 | 1.78312 | 38522 ft | 494 kts | 211° |
| 2026-04-28 12:15 | 57.41408 | 1.71804 | 38532 ft | 492 kts | 211° |
| 2026-04-28 12:15 | 57.35531 | 1.65335 | 38562 ft | 491 kts | 211° |
| 2026-04-28 12:16 | 57.29653 | 1.58890 | 38543 ft | 491 kts | 211° |
| 2026-04-28 12:16 | 57.23779 | 1.52474 | 38548 ft | 490 kts | 211° |
| 2026-04-28 12:17 | 57.17901 | 1.46076 | 38543 ft | 491 kts | 210° |
| 2026-04-28 12:17 | 57.12016 | 1.39696 | 38548 ft | 491 kts | 210° |
| 2026-04-28 12:18 | 57.06119 | 1.33327 | 38553 ft | 492 kts | 210° |
| 2026-04-28 12:18 | 57.00206 | 1.26964 | 38542 ft | 493 kts | 210° |
| 2026-04-28 12:19 | 56.94289 | 1.20620 | 38541 ft | 493 kts | 210° |
| 2026-04-28 12:19 | 56.88392 | 1.14321 | 38530 ft | 494 kts | 210° |
| 2026-04-28 12:20 | 56.82456 | 1.08003 | 38544 ft | 494 kts | 209° |
| 2026-04-28 12:20 | 56.76513 | 1.01702 | 38538 ft | 494 kts | 209° |
| 2026-04-28 12:21 | 56.70564 | 0.95418 | 38534 ft | 494 kts | 209° |
| 2026-04-28 12:21 | 56.64618 | 0.89159 | 38536 ft | 494 kts | 209° |
| 2026-04-28 12:22 | 56.58667 | 0.82919 | 38538 ft | 493 kts | 209° |
| 2026-04-28 12:22 | 56.52723 | 0.76708 | 38541 ft | 493 kts | 208° |
| 2026-04-28 12:23 | 56.46780 | 0.70523 | 38536 ft | 493 kts | 208° |
| 2026-04-28 12:23 | 56.40842 | 0.64364 | 38532 ft | 492 kts | 208° |
| 2026-04-28 12:24 | 56.34907 | 0.58230 | 38529 ft | 491 kts | 208° |
| 2026-04-28 12:24 | 56.28981 | 0.52128 | 38540 ft | 490 kts | 208° |
| 2026-04-28 12:25 | 56.23066 | 0.46060 | 38526 ft | 489 kts | 208° |
| 2026-04-28 12:25 | 56.17158 | 0.40020 | 38540 ft | 489 kts | 208° |
| 2026-04-28 12:26 | 56.11249 | 0.34000 | 38530 ft | 488 kts | 207° |
| 2026-04-28 12:26 | 56.05340 | 0.28003 | 38534 ft | 488 kts | 207° |
| 2026-04-28 12:27 | 55.99431 | 0.22027 | 38528 ft | 488 kts | 207° |
| 2026-04-28 12:27 | 55.93519 | 0.16068 | 38530 ft | 488 kts | 207° |
| 2026-04-28 12:28 | 55.87600 | 0.10123 | 38530 ft | 488 kts | 207° |
| 2026-04-28 12:28 | 55.81672 | 0.04191 | 38522 ft | 489 kts | 207° |
| 2026-04-28 12:29 | 55.72770 | -0.04678 | 38513 ft | 489 kts | 207° |
| 2026-04-28 12:30 | 55.66829 | -0.10572 | 38519 ft | 490 kts | 207° |
| 2026-04-28 12:30 | 55.60878 | -0.16454 | 38525 ft | 490 kts | 207° |
| 2026-04-28 12:31 | 55.54927 | -0.22317 | 38518 ft | 490 kts | 207° |
| 2026-04-28 12:31 | 55.48972 | -0.28161 | 38529 ft | 490 kts | 206° |
| 2026-04-28 12:32 | 55.43044 | -0.33961 | 38519 ft | 490 kts | 206° |
| 2026-04-28 12:32 | 55.37077 | -0.39777 | 38515 ft | 490 kts | 206° |
| 2026-04-28 12:33 | 55.31110 | -0.45574 | 38509 ft | 490 kts | 206° |
| 2026-04-28 12:33 | 55.25140 | -0.51353 | 38537 ft | 490 kts | 206° |
| 2026-04-28 12:34 | 55.19163 | -0.57119 | 38511 ft | 490 kts | 206° |
| 2026-04-28 12:34 | 55.13187 | -0.62864 | 38505 ft | 490 kts | 206° |
| 2026-04-28 12:35 | 55.07215 | -0.68586 | 38511 ft | 490 kts | 206° |
| 2026-04-28 12:35 | 55.01239 | -0.74292 | 38506 ft | 489 kts | 206° |
| 2026-04-28 12:36 | 54.95265 | -0.79976 | 38505 ft | 489 kts | 206° |
| 2026-04-28 12:36 | 54.89286 | -0.85646 | 38500 ft | 489 kts | 206° |
| 2026-04-28 12:37 | 54.83355 | -0.91252 | 38503 ft | 489 kts | 206° |
| 2026-04-28 12:37 | 54.77383 | -0.96876 | 38496 ft | 489 kts | 205° |
| 2026-04-28 12:37 | 54.74333 | -0.99740 | 38032 ft | 495 kts | 205° |
| 2026-04-28 12:38 | 54.71353 | -1.02535 | 37526 ft | 492 kts | 205° |
| 2026-04-28 12:38 | 54.68350 | -1.05348 | 36983 ft | 491 kts | 205° |
| 2026-04-28 12:38 | 54.65351 | -1.08153 | 36422 ft | 490 kts | 205° |
| 2026-04-28 12:38 | 54.62354 | -1.10949 | 35859 ft | 490 kts | 205° |
| 2026-04-28 12:39 | 54.59367 | -1.13733 | 35479 ft | 485 kts | 205° |
| 2026-04-28 12:39 | 54.56408 | -1.16486 | 35072 ft | 482 kts | 205° |
| 2026-04-28 12:39 | 54.53469 | -1.19217 | 34670 ft | 479 kts | 205° |
| 2026-04-28 12:39 | 54.50542 | -1.21930 | 34239 ft | 476 kts | 204° |
| 2026-04-28 12:40 | 54.47636 | -1.24619 | 33818 ft | 473 kts | 204° |
| 2026-04-28 12:40 | 54.44744 | -1.27292 | 33397 ft | 470 kts | 204° |
| 2026-04-28 12:40 | 54.41875 | -1.29939 | 32993 ft | 467 kts | 204° |
| 2026-04-28 12:40 | 54.39022 | -1.32565 | 32603 ft | 463 kts | 204° |
| 2026-04-28 12:41 | 54.36193 | -1.35167 | 32228 ft | 460 kts | 204° |
| 2026-04-28 12:41 | 54.33383 | -1.37747 | 31849 ft | 457 kts | 204° |
| 2026-04-28 12:41 | 54.30590 | -1.40307 | 31472 ft | 454 kts | 204° |
| 2026-04-28 12:41 | 54.27819 | -1.42843 | 31102 ft | 451 kts | 204° |
| 2026-04-28 12:42 | 54.25062 | -1.45362 | 30721 ft | 448 kts | 204° |
| 2026-04-28 12:42 | 54.22329 | -1.47856 | 30342 ft | 445 kts | 204° |
| 2026-04-28 12:42 | 54.19600 | -1.50342 | 29908 ft | 442 kts | 204° |
| 2026-04-28 12:42 | 54.16897 | -1.52801 | 29522 ft | 438 kts | 204° |
| 2026-04-28 12:43 | 54.14220 | -1.55234 | 29145 ft | 434 kts | 204° |
| 2026-04-28 12:43 | 54.11564 | -1.57643 | 28763 ft | 431 kts | 204° |
| 2026-04-28 12:43 | 54.08928 | -1.60031 | 28365 ft | 427 kts | 204° |
| 2026-04-28 12:43 | 54.06313 | -1.62397 | 27993 ft | 424 kts | 204° |
| 2026-04-28 12:44 | 54.03745 | -1.64716 | 27614 ft | 421 kts | 204° |
| 2026-04-28 12:44 | 54.01252 | -1.67315 | 27243 ft | 423 kts | 219° |
| 2026-04-28 12:44 | 53.99132 | -1.70725 | 27077 ft | 418 kts | 223° |
| 2026-04-28 12:44 | 53.97027 | -1.74191 | 26822 ft | 427 kts | 222° |
| 2026-04-28 12:45 | 53.94838 | -1.77766 | 26549 ft | 434 kts | 222° |
| 2026-04-28 12:45 | 53.92677 | -1.81262 | 26265 ft | 434 kts | 222° |
| 2026-04-28 12:45 | 53.90474 | -1.84798 | 26170 ft | 425 kts | 221° |
| 2026-04-28 12:45 | 53.88341 | -1.88203 | 26221 ft | 420 kts | 221° |
| 2026-04-28 12:46 | 53.86235 | -1.91552 | 26261 ft | 422 kts | 221° |
| 2026-04-28 12:46 | 53.84076 | -1.94978 | 26263 ft | 427 kts | 221° |
| 2026-04-28 12:46 | 53.81910 | -1.98415 | 26262 ft | 426 kts | 221° |
| 2026-04-28 12:46 | 53.79751 | -2.01837 | 26239 ft | 425 kts | 221° |
| 2026-04-28 12:47 | 53.77619 | -2.05210 | 25920 ft | 416 kts | 221° |
| 2026-04-28 12:47 | 53.75386 | -2.08292 | 25285 ft | 413 kts | 210° |
| 2026-04-28 12:47 | 53.72852 | -2.10648 | 24580 ft | 409 kts | 199° |
| 2026-04-28 12:47 | 53.70223 | -2.12206 | 23957 ft | 403 kts | 189° |
| 2026-04-28 12:48 | 53.67469 | -2.13330 | 23378 ft | 401 kts | 188° |
| 2026-04-28 12:48 | 53.64810 | -2.14379 | 23122 ft | 395 kts | 188° |
| 2026-04-28 12:48 | 53.62152 | -2.15433 | 22845 ft | 391 kts | 188° |
| 2026-04-28 12:48 | 53.59520 | -2.16490 | 22585 ft | 387 kts | 188° |
| 2026-04-28 12:49 | 53.56913 | -2.17549 | 22337 ft | 383 kts | 188° |
| 2026-04-28 12:49 | 53.54294 | -2.18620 | 22102 ft | 382 kts | 188° |
| 2026-04-28 12:49 | 53.51701 | -2.19681 | 21867 ft | 385 kts | 188° |
| 2026-04-28 12:49 | 53.49088 | -2.20751 | 21633 ft | 387 kts | 188° |
| 2026-04-28 12:50 | 53.46478 | -2.21823 | 21389 ft | 385 kts | 188° |
| 2026-04-28 12:50 | 53.43886 | -2.22887 | 21144 ft | 382 kts | 188° |
| 2026-04-28 12:50 | 53.41349 | -2.23926 | 20913 ft | 379 kts | 188° |
| 2026-04-28 12:50 | 53.38794 | -2.24970 | 20682 ft | 377 kts | 188° |
| 2026-04-28 12:51 | 53.36241 | -2.25463 | 20456 ft | 362 kts | 167° |
| 2026-04-28 12:51 | 53.33819 | -2.24571 | 20237 ft | 358 kts | 156° |
| 2026-04-28 12:51 | 53.31391 | -2.23331 | 19834 ft | 359 kts | 155° |
| 2026-04-28 12:51 | 53.29009 | -2.22065 | 19455 ft | 358 kts | 155° |
| 2026-04-28 12:52 | 53.26654 | -2.20798 | 19114 ft | 354 kts | 155° |
| 2026-04-28 12:52 | 53.24351 | -2.19550 | 18795 ft | 351 kts | 155° |
| 2026-04-28 12:52 | 53.22037 | -2.18293 | 18435 ft | 348 kts | 155° |
| 2026-04-28 12:52 | 53.19765 | -2.16986 | 18076 ft | 342 kts | 149° |
| 2026-04-28 12:53 | 53.17643 | -2.15312 | 17781 ft | 334 kts | 146° |
| 2026-04-28 12:53 | 53.15587 | -2.13563 | 17443 ft | 330 kts | 145° |
| 2026-04-28 12:53 | 53.13558 | -2.11816 | 17138 ft | 326 kts | 145° |
| 2026-04-28 12:53 | 53.12202 | -2.10645 | 16920 ft | 324 kts | 145° |
| 2026-04-28 12:54 | 53.09568 | -2.08365 | 16536 ft | 321 kts | 145° |
| 2026-04-28 12:54 | 53.07588 | -2.06649 | 16257 ft | 320 kts | 145° |
| 2026-04-28 12:54 | 53.05620 | -2.04939 | 16002 ft | 319 kts | 145° |
| 2026-04-28 12:54 | 53.03658 | -2.03234 | 15761 ft | 317 kts | 145° |
| 2026-04-28 12:55 | 53.01703 | -2.01527 | 15250 ft | 324 kts | 145° |
| 2026-04-28 12:55 | 52.99711 | -1.99755 | 14842 ft | 324 kts | 145° |
| 2026-04-28 12:55 | 52.97732 | -1.97983 | 14526 ft | 322 kts | 145° |
| 2026-04-28 12:55 | 52.95635 | -1.96626 | 14174 ft | 330 kts | 164° |
| 2026-04-28 12:56 | 52.93326 | -1.96617 | 13950 ft | 333 kts | 182° |
| 2026-04-28 12:56 | 52.91064 | -1.97204 | 13785 ft | 326 kts | 184° |
| 2026-04-28 12:56 | 52.88836 | -1.97868 | 13434 ft | 325 kts | 185° |
| 2026-04-28 12:56 | 52.86616 | -1.98544 | 13061 ft | 324 kts | 185° |
| 2026-04-28 12:57 | 52.84412 | -1.99223 | 12673 ft | 319 kts | 185° |
| 2026-04-28 12:57 | 52.82240 | -1.99900 | 12132 ft | 317 kts | 185° |
| 2026-04-28 12:57 | 52.80079 | -2.00578 | 11579 ft | 316 kts | 185° |
| 2026-04-28 12:57 | 52.77931 | -2.01252 | 11075 ft | 313 kts | 185° |
| 2026-04-28 12:58 | 52.75793 | -2.01922 | 10516 ft | 313 kts | 185° |
| 2026-04-28 12:58 | 52.73655 | -2.02583 | 10004 ft | 311 kts | 185° |
| 2026-04-28 12:58 | 52.71544 | -2.03235 | 9531 ft | 307 kts | 185° |
| 2026-04-28 12:58 | 52.69455 | -2.03880 | 9063 ft | 303 kts | 185° |
| 2026-04-28 12:59 | 52.67389 | -2.04517 | 8388 ft | 305 kts | 185° |
| 2026-04-28 12:59 | 52.65277 | -2.05156 | 7654 ft | 309 kts | 185° |
| 2026-04-28 12:59 | 52.63167 | -2.05793 | 7078 ft | 307 kts | 185° |
| 2026-04-28 12:59 | 52.61084 | -2.06424 | 6551 ft | 302 kts | 185° |
| 2026-04-28 13:00 | 52.59035 | -2.07047 | 6100 ft | 294 kts | 185° |
| 2026-04-28 13:00 | 52.57732 | -2.07430 | 6027 ft | 280 kts | 181° |
| 2026-04-28 13:00 | 52.55891 | -2.07218 | 5734 ft | 257 kts | 155° |
| 2026-04-28 13:00 | 52.54437 | -2.05706 | 5259 ft | 244 kts | 127° |
| 2026-04-28 13:01 | 52.53687 | -2.03283 | 4726 ft | 238 kts | 99° |
| 2026-04-28 13:01 | 52.53827 | -2.00618 | 4235 ft | 237 kts | 69° |
| 2026-04-28 13:01 | 52.54828 | -1.98520 | 4093 ft | 237 kts | 40° |
| 2026-04-28 13:01 | 52.56031 | -1.96680 | 4064 ft | 236 kts | 54° |
| 2026-04-28 13:02 | 52.57141 | -1.94752 | 4013 ft | 231 kts | 36° |
| 2026-04-28 13:02 | 52.58632 | -1.94033 | 3946 ft | 224 kts | 4° |
| 2026-04-28 13:02 | 52.60094 | -1.94781 | 3891 ft | 222 kts | 334° |
| 2026-04-28 13:02 | 52.61323 | -1.96236 | 3839 ft | 216 kts | 321° |
| 2026-04-28 13:03 | 52.62052 | -1.98343 | 3766 ft | 216 kts | 284° |
| 2026-04-28 13:03 | 52.62111 | -2.00819 | 3768 ft | 218 kts | 270° |
| 2026-04-28 13:03 | 52.62085 | -2.03317 | 3702 ft | 217 kts | 270° |
| 2026-04-28 13:03 | 52.62060 | -2.05764 | 3411 ft | 212 kts | 270° |
| 2026-04-28 13:04 | 52.62021 | -2.08201 | 2971 ft | 213 kts | 271° |
| 2026-04-28 13:04 | 52.62166 | -2.10549 | 2634 ft | 201 kts | 300° |
| 2026-04-28 13:04 | 52.62996 | -2.12106 | 2475 ft | 171 kts | 341° |
| 2026-04-28 13:04 | 52.64093 | -2.12311 | 2100 ft | 155 kts | 25° |
| 2026-04-28 13:05 | 52.64815 | -2.11163 | 2046 ft | 149 kts | 70° |
| 2026-04-28 13:05 | 52.65023 | -2.09458 | 2037 ft | 154 kts | 79° |
| 2026-04-28 13:05 | 52.65164 | -2.07733 | 2012 ft | 150 kts | 79° |
| 2026-04-28 13:05 | 52.65285 | -2.06023 | 2029 ft | 152 kts | 80° |
| 2026-04-28 13:06 | 52.65171 | -2.04269 | 2003 ft | 163 kts | 113° |
| 2026-04-28 13:06 | 52.64466 | -2.02754 | 2012 ft | 171 kts | 124° |
| 2026-04-28 13:06 | 52.63685 | -2.01303 | 2010 ft | 167 kts | 125° |
| 2026-04-28 13:06 | 52.62920 | -1.99884 | 2005 ft | 164 kts | 125° |
| 2026-04-28 13:07 | 52.62153 | -1.98475 | 2015 ft | 166 kts | 125° |
| 2026-04-28 13:07 | 52.61412 | -1.97024 | 2010 ft | 165 kts | 119° |
| 2026-04-28 13:07 | 52.60713 | -1.95509 | 1999 ft | 166 kts | 120° |
| 2026-04-28 13:07 | 52.60014 | -1.94004 | 1981 ft | 165 kts | 120° |
| 2026-04-28 13:08 | 52.59324 | -1.92520 | 1989 ft | 162 kts | 120° |
| 2026-04-28 13:08 | 52.58638 | -1.91060 | 1994 ft | 160 kts | 120° |
| 2026-04-28 13:08 | 52.57963 | -1.89607 | 1994 ft | 160 kts | 120° |
| 2026-04-28 13:08 | 52.57261 | -1.88177 | 1977 ft | 163 kts | 129° |
| 2026-04-28 13:09 | 52.56356 | -1.87021 | 2011 ft | 169 kts | 137° |
| 2026-04-28 13:09 | 52.55370 | -1.85915 | 2014 ft | 173 kts | 138° |
| 2026-04-28 13:09 | 52.54373 | -1.84809 | 2006 ft | 172 kts | 139° |
| 2026-04-28 13:09 | 52.53389 | -1.83716 | 1995 ft | 170 kts | 139° |
| 2026-04-28 13:10 | 52.52397 | -1.82611 | 1820 ft | 175 kts | 138° |
| 2026-04-28 13:10 | 52.51387 | -1.81486 | 1593 ft | 175 kts | 138° |
| 2026-04-28 13:10 | 52.50396 | -1.80385 | 1365 ft | 168 kts | 137° |
| 2026-04-28 13:10 | 52.49463 | -1.79347 | 1156 ft | 158 kts | 136° |
| 2026-04-28 13:11 | 52.48572 | -1.78354 | 896 ft | 152 kts | 138° |
| 2026-04-28 13:11 | 52.47711 | -1.77393 | 693 ft | 150 kts | 135° |
| 2026-04-28 13:11 | 52.46848 | -1.76428 | 471 ft | 151 kts | 139° |
| 2026-04-28 13:11 | 52.45994 | -1.75481 | 315 ft | 142 kts | 139° |
| 2026-04-28 13:12 | 52.45345 | -1.74727 | 324 ft | 83 kts | 148° |
| 2026-04-28 13:12 | 52.45041 | -1.74416 | 328 ft | 20 kts | 147° |
| 2026-04-28 13:12 | 52.44977 | -1.74347 | 324 ft | 12 kts | 146° |
| 2026-04-28 13:12 | 52.44951 | -1.74222 | 327 ft | 12 kts | 79° |
| 2026-04-28 13:13 | 52.44970 | -1.74084 | 325 ft | 14 kts | 76° |
| 2026-04-28 13:13 | 52.44999 | -1.73921 | 322 ft | 14 kts | 62° |
| 2026-04-28 13:13 | 52.45045 | -1.73802 | 322 ft | 9 kts | 66° |
| 2026-04-28 13:13 | 52.45037 | -1.73754 | 322 ft | 5 kts | 135° |
| 2026-04-28 13:14 | 52.45006 | -1.73716 | 322 ft | 7 kts | 144° |
| 2026-04-28 13:14 | 52.44961 | -1.73666 | 321 ft | 9 kts | 145° |
| 2026-04-28 13:14 | 52.44906 | -1.73594 | 322 ft | 11 kts | 127° |
| 2026-04-28 13:14 | 52.44913 | -1.73468 | 322 ft | 12 kts | 63° |
| 2026-04-28 13:15 | 52.44951 | -1.73395 | 322 ft | 3 kts | 19° |
| 2026-04-28 13:15 | 52.44973 | -1.73409 | 322 ft | 5 kts | 329° |
| 2026-04-28 13:15 | 52.44989 | -1.73427 | 322 ft | 2 kts | 327° |
| 2026-04-28 13:15 | 52.44992 | -1.73430 | 322 ft | 0 kts | 326° |